Time;durP1;ratioP1;P1;durP2;ratioP2;P2;SDS_P1;SDS_P2;PMS_P1;PMS_P2;Temp;Humidity;BMP_temperature;BMP_pressure;BME280_temperature;BME280_humidity;BME280_pressure;Samples;Min_cycle;Max_cycle;Signal;HPM_P1;HPM_P2
2022/04/03 00:01:09;;;;;;;12.77;5.23;;;-0.40;99.90;;;;;;5087274;28;20204;-66
2022/04/03 00:03:35;;;;;;;9.93;5.63;;;-0.30;99.90;;;;;;5082850;28;20204;-66
2022/04/03 00:06:01;;;;;;;12.27;5.00;;;-0.30;99.90;;;;;;5077488;28;20176;-65
2022/04/03 00:08:28;;;;;;;9.23;4.90;;;-0.30;99.90;;;;;;5077222;28;20178;-66
2022/04/03 00:10:54;;;;;;;8.80;4.33;;;-0.30;99.90;;;;;;5068130;28;20620;-65
2022/04/03 00:13:20;;;;;;;12.20;6.03;;;-0.30;99.90;;;;;;5073560;28;20439;-64
2022/04/03 00:15:45;;;;;;;9.10;5.57;;;-0.30;99.90;;;;;;5084787;28;20836;-66
2022/04/03 00:18:11;;;;;;;8.93;5.20;;;-0.30;99.90;;;;;;5079041;28;20188;-64
2022/04/03 00:20:41;;;;;;;14.53;5.73;;;-0.40;99.90;;;;;;5071508;28;20220;-67
2022/04/03 00:23:07;;;;;;;12.43;5.47;;;-0.40;99.90;;;;;;5075695;28;20201;-64
2022/04/03 00:25:33;;;;;;;17.40;5.43;;;-0.30;99.90;;;;;;5084573;28;20449;-67
2022/04/03 00:27:59;;;;;;;9.00;4.80;;;-0.30;99.90;;;;;;5073694;28;20849;-66
2022/04/03 00:30:25;;;;;;;9.30;4.50;;;-0.40;99.90;;;;;;5067110;28;20416;-68
2022/04/03 00:32:51;;;;;;;9.40;5.43;;;-0.40;99.90;;;;;;5067613;28;20423;-67
2022/04/03 00:35:16;;;;;;;8.40;5.17;;;-0.40;99.90;;;;;;5085248;28;20180;-67
2022/04/03 00:37:43;;;;;;;9.03;5.20;;;-0.40;99.90;;;;;;5084522;28;20533;-66
2022/04/03 00:40:09;;;;;;;11.10;6.03;;;-0.50;99.90;;;;;;5068336;28;20185;-65
2022/04/03 00:42:36;;;;;;;10.30;5.00;;;-0.50;99.90;;;;;;5076912;28;20527;-65
2022/04/03 00:45:06;;;;;;;11.20;5.83;;;-0.50;99.90;;;;;;5081766;28;20431;-67
2022/04/03 00:47:33;;;;;;;12.53;6.23;;;-0.50;99.90;;;;;;5079852;28;20431;-67
2022/04/03 00:50:00;;;;;;;11.90;6.30;;;-0.50;99.90;;;;;;5085630;28;20445;-65
2022/04/03 00:52:26;;;;;;;8.70;5.53;;;-0.50;99.90;;;;;;5078159;28;20465;-67
2022/04/03 00:54:52;;;;;;;10.63;5.70;;;-0.50;99.90;;;;;;5074472;28;20442;-68
2022/04/03 00:57:20;;;;;;;8.90;5.23;;;-0.50;99.90;;;;;;5088185;28;21763;-66
2022/04/03 00:59:47;;;;;;;10.83;6.40;;;-0.40;99.90;;;;;;5081905;28;20185;-66
2022/04/03 01:02:12;;;;;;;10.03;5.90;;;-0.40;99.90;;;;;;5079646;28;20462;-67
2022/04/03 01:04:39;;;;;;;11.40;5.80;;;-0.40;99.90;;;;;;5073440;28;20425;-67
2022/04/03 01:07:06;;;;;;;11.50;5.90;;;-0.40;99.90;;;;;;5079055;28;20187;-66
2022/04/03 01:09:31;;;;;;;14.87;6.00;;;-0.40;99.90;;;;;;5077027;28;21222;-66
2022/04/03 01:11:57;;;;;;;11.53;5.37;;;-0.40;99.90;;;;;;5078579;28;20478;-66
2022/04/03 01:14:37;;;;;;;10.10;6.00;;;-0.40;99.90;;;;;;5074143;28;20286;-67
2022/04/03 01:17:04;;;;;;;10.00;5.13;;;-0.40;99.90;;;;;;5061480;28;20694;-66
2022/04/03 01:19:30;;;;;;;9.07;5.30;;;-0.40;99.90;;;;;;5071415;28;20427;-65
2022/04/03 01:21:56;;;;;;;13.00;5.53;;;-0.40;99.90;;;;;;5082016;28;21086;-65
2022/04/03 01:24:23;;;;;;;10.83;6.27;;;-0.40;99.90;;;;;;5069803;28;20676;-63
2022/04/03 01:26:50;;;;;;;13.00;5.10;;;-0.40;99.90;;;;;;5083272;28;20422;-66
2022/04/03 01:29:16;;;;;;;8.57;5.13;;;-0.40;99.90;;;;;;5080700;28;20430;-66
2022/04/03 01:31:42;;;;;;;8.93;5.77;;;-0.40;99.90;;;;;;5086642;28;20434;-66
2022/04/03 01:34:08;;;;;;;12.23;6.80;;;-0.40;99.90;;;;;;5082648;28;20484;-66
2022/04/03 01:36:33;;;;;;;13.07;6.47;;;-0.40;99.90;;;;;;5069958;28;20399;-66
2022/04/03 01:38:59;;;;;;;9.43;5.70;;;-0.40;99.90;;;;;;5083278;28;20517;-65
2022/04/03 01:41:25;;;;;;;14.37;5.77;;;-0.40;99.90;;;;;;5074002;28;20200;-65
2022/04/03 01:43:50;;;;;;;13.03;6.03;;;-0.40;99.90;;;;;;5072993;28;20244;-65
2022/04/03 01:46:16;;;;;;;11.00;5.97;;;-0.40;99.90;;;;;;5075916;28;20260;-64
2022/04/03 01:48:42;;;;;;;12.77;5.63;;;-0.40;99.90;;;;;;5075193;28;20227;-66
2022/04/03 01:51:07;;;;;;;21.80;6.57;;;-0.50;99.90;;;;;;5073344;28;20837;-66
2022/04/03 01:53:33;;;;;;;8.50;5.73;;;-0.50;99.90;;;;;;5067171;28;20181;-67
2022/04/03 01:56:05;;;;;;;9.27;5.60;;;-0.40;99.90;;;;;;5082161;28;20184;-66
2022/04/03 01:58:31;;;;;;;13.70;5.87;;;-0.50;99.90;;;;;;5074057;28;20189;-66
2022/04/03 02:00:57;;;;;;;10.60;5.63;;;-0.50;99.90;;;;;;5079117;28;20454;-68
2022/04/03 02:03:23;;;;;;;11.13;5.50;;;-0.50;99.90;;;;;;5072094;28;20984;-65
2022/04/03 02:05:49;;;;;;;13.07;6.30;;;-0.50;99.90;;;;;;5078191;28;20423;-67
2022/04/03 02:08:15;;;;;;;10.10;5.77;;;-0.50;99.90;;;;;;5075650;28;20683;-67
2022/04/03 02:10:41;;;;;;;14.70;7.20;;;-0.40;99.90;;;;;;5078294;28;20418;-66
2022/04/03 02:13:07;;;;;;;14.57;7.00;;;-0.40;99.90;;;;;;5079020;28;20442;-67
2022/04/03 02:15:33;;;;;;;14.03;6.47;;;-0.40;99.90;;;;;;5081127;28;20499;-66
2022/04/03 02:17:59;;;;;;;17.63;7.20;;;-0.40;99.90;;;;;;5086356;28;20707;-67
2022/04/03 02:20:24;;;;;;;13.97;6.33;;;-0.40;99.90;;;;;;5077249;28;20196;-63
2022/04/03 02:22:50;;;;;;;11.90;6.97;;;-0.40;99.90;;;;;;5075674;28;20205;-66
2022/04/03 02:25:15;;;;;;;12.03;5.73;;;-0.50;99.90;;;;;;5076906;28;20211;-65
2022/04/03 02:27:44;;;;;;;14.83;7.00;;;-0.50;99.90;;;;;;5086102;28;20176;-67
2022/04/03 02:30:10;;;;;;;12.03;5.67;;;-0.50;99.90;;;;;;5069602;28;20176;-67
2022/04/03 02:32:37;;;;;;;13.73;6.93;;;-0.50;99.90;;;;;;5079653;28;20955;-67
2022/04/03 02:35:11;;;;;;;18.83;6.60;;;-0.40;99.90;;;;;;5079619;28;20176;-66
2022/04/03 02:37:37;;;;;;;14.57;8.17;;;-0.40;99.90;;;;;;5081120;28;20513;-66
2022/04/03 02:40:05;;;;;;;11.77;6.10;;;-0.40;99.90;;;;;;5063687;28;20915;-66
2022/04/03 02:42:32;;;;;;;12.60;5.63;;;-0.40;99.90;;;;;;5079107;28;20473;-68
2022/04/03 02:44:58;;;;;;;13.17;7.37;;;-0.50;99.90;;;;;;5078591;28;20431;-67
2022/04/03 02:47:24;;;;;;;13.87;6.37;;;-0.50;99.90;;;;;;5088534;28;20873;-67
2022/04/03 02:49:51;;;;;;;11.53;6.00;;;-0.40;99.90;;;;;;5083224;28;20422;-65
2022/04/03 02:52:18;;;;;;;14.63;6.50;;;-0.40;99.90;;;;;;5068970;28;20205;-66
2022/04/03 02:54:45;;;;;;;17.70;6.90;;;-0.50;99.90;;;;;;5085976;28;20433;-67
2022/04/03 02:57:11;;;;;;;16.23;6.97;;;-0.50;99.90;;;;;;5088613;28;20430;-67
2022/04/03 02:59:37;;;;;;;14.30;6.57;;;-0.50;99.90;;;;;;5083268;28;20420;-67
2022/04/03 03:02:03;;;;;;;12.07;6.90;;;-0.50;99.90;;;;;;5081222;28;20466;-65
2022/04/03 03:04:28;;;;;;;18.27;6.90;;;-0.50;99.90;;;;;;5077054;28;20739;-67
2022/04/03 03:06:54;;;;;;;14.93;6.90;;;-0.50;99.90;;;;;;5077301;28;20349;-67
2022/04/03 03:09:20;;;;;;;11.93;6.77;;;-0.50;99.90;;;;;;5084200;28;20176;-66
2022/04/03 03:11:45;;;;;;;17.67;6.77;;;-0.50;99.90;;;;;;5079587;28;20197;-68
2022/04/03 03:14:11;;;;;;;11.40;6.57;;;-0.50;99.90;;;;;;5076587;28;20183;-66
2022/04/03 03:16:37;;;;;;;12.60;6.73;;;-0.50;99.90;;;;;;5077915;28;20184;-67
2022/04/03 03:19:02;;;;;;;15.03;7.47;;;-0.50;99.90;;;;;;5083995;28;20180;-67
2022/04/03 03:21:28;;;;;;;13.67;8.23;;;-0.50;99.90;;;;;;5073827;28;20291;-66
2022/04/03 03:23:54;;;;;;;20.60;8.33;;;-0.60;99.90;;;;;;5077539;28;20301;-65
2022/04/03 03:26:20;;;;;;;12.43;7.17;;;-0.60;99.90;;;;;;5078460;28;20181;-66
2022/04/03 03:28:46;;;;;;;22.90;8.23;;;-0.60;99.90;;;;;;5057511;28;20433;-66
2022/04/03 03:31:12;;;;;;;13.83;7.50;;;-0.60;99.90;;;;;;5082876;28;20450;-67
2022/04/03 03:33:37;;;;;;;17.10;8.43;;;-0.60;99.90;;;;;;5087041;28;20441;-67
2022/04/03 03:36:05;;;;;;;13.00;7.07;;;-0.60;99.90;;;;;;5085135;28;20188;-67
2022/04/03 03:38:31;;;;;;;19.00;8.20;;;-0.60;99.90;;;;;;5067422;28;20613;-67
2022/04/03 03:40:56;;;;;;;16.17;8.30;;;-0.60;99.90;;;;;;5084376;28;20960;-68
2022/04/03 03:43:22;;;;;;;14.77;7.33;;;-0.60;99.90;;;;;;5079151;28;20713;-66
2022/04/03 03:45:48;;;;;;;15.83;8.23;;;-0.50;99.90;;;;;;5085500;28;20176;-67
2022/04/03 03:48:13;;;;;;;19.53;8.20;;;-0.60;99.90;;;;;;5078483;28;20746;-65
2022/04/03 03:50:39;;;;;;;12.80;7.00;;;-0.60;99.90;;;;;;5078597;28;20173;-66
2022/04/03 03:53:05;;;;;;;20.47;7.53;;;-0.50;99.90;;;;;;5074398;28;20203;-65
2022/04/03 03:55:30;;;;;;;17.90;7.70;;;-0.50;99.90;;;;;;5077498;28;20268;-66
2022/04/03 03:57:56;;;;;;;16.53;6.73;;;-0.60;99.90;;;;;;5073856;28;20428;-66
2022/04/03 04:00:22;;;;;;;15.13;9.50;;;-0.50;99.90;;;;;;5066868;28;20185;-67
2022/04/03 04:02:47;;;;;;;17.40;6.63;;;-0.50;99.90;;;;;;5085085;28;20235;-66
2022/04/03 04:05:13;;;;;;;14.60;7.17;;;-0.50;99.90;;;;;;5070670;28;20263;-66
2022/04/03 04:07:44;;;;;;;13.57;7.37;;;-0.50;99.90;;;;;;5079942;28;20176;-67
2022/04/03 04:10:13;;;;;;;17.27;7.00;;;-0.60;99.90;;;;;;5072863;28;20187;-66
2022/04/03 04:12:40;;;;;;;15.47;7.13;;;-0.50;99.90;;;;;;5076854;28;20546;-66
2022/04/03 04:15:08;;;;;;;11.20;6.60;;;-0.40;99.90;;;;;;5072701;28;20492;-66
2022/04/03 04:17:34;;;;;;;13.70;6.90;;;-0.50;99.90;;;;;;5062306;28;20438;-67
2022/04/03 04:20:00;;;;;;;10.87;6.50;;;-0.50;99.90;;;;;;5070675;28;20933;-66
2022/04/03 04:22:26;;;;;;;14.60;8.27;;;-0.50;99.90;;;;;;5070312;28;20473;-66
2022/04/03 04:24:51;;;;;;;14.23;7.50;;;-0.50;99.90;;;;;;5079337;28;20189;-66
2022/04/03 04:27:17;;;;;;;16.90;8.23;;;-0.50;99.90;;;;;;5074752;28;20170;-66
2022/04/03 04:29:42;;;;;;;17.83;7.87;;;-0.50;99.90;;;;;;5073533;28;20187;-68
2022/04/03 04:32:08;;;;;;;12.73;7.13;;;-0.50;99.90;;;;;;5085375;28;20315;-66
2022/04/03 04:34:34;;;;;;;14.80;8.80;;;-0.50;99.90;;;;;;5077456;28;20187;-66
2022/04/03 04:37:00;;;;;;;13.77;7.43;;;-0.50;99.90;;;;;;5083037;28;20465;-66
2022/04/03 04:39:26;;;;;;;16.30;7.00;;;-0.50;99.90;;;;;;5073179;28;20463;-67
2022/04/03 04:41:51;;;;;;;20.13;8.07;;;-0.50;99.90;;;;;;5077877;28;20262;-66
2022/04/03 04:44:17;;;;;;;13.03;6.73;;;-0.60;99.90;;;;;;5085566;28;20550;-65
2022/04/03 04:46:42;;;;;;;16.40;7.57;;;-0.60;99.90;;;;;;5081380;28;20189;-66
2022/04/03 04:49:08;;;;;;;14.80;7.10;;;-0.60;99.90;;;;;;5071541;28;20865;-66
2022/04/03 04:51:34;;;;;;;15.10;6.77;;;-0.60;99.90;;;;;;5071994;28;20275;-65
2022/04/03 04:53:59;;;;;;;13.47;6.90;;;-0.60;99.90;;;;;;5066141;28;20199;-64
2022/04/03 04:56:25;;;;;;;18.43;8.53;;;-0.60;99.90;;;;;;5074328;28;20196;-66
2022/04/03 04:58:50;;;;;;;13.30;6.33;;;-0.60;99.90;;;;;;5072948;28;20189;-66
2022/04/03 05:01:16;;;;;;;19.17;8.53;;;-0.60;99.90;;;;;;5074891;28;20212;-65
2022/04/03 05:03:42;;;;;;;13.73;6.70;;;-0.60;99.90;;;;;;5073168;28;20215;-66
2022/04/03 05:06:12;;;;;;;19.03;8.07;;;-0.60;99.90;;;;;;5076776;28;20242;-64
2022/04/03 05:08:37;;;;;;;13.80;7.33;;;-0.60;99.90;;;;;;5076352;28;20839;-65
2022/04/03 05:11:03;;;;;;;14.00;7.30;;;-0.60;99.90;;;;;;5070191;28;20569;-66
2022/04/03 05:13:29;;;;;;;18.40;7.17;;;-0.60;99.90;;;;;;5072991;28;20193;-66
2022/04/03 05:15:54;;;;;;;21.20;9.00;;;-0.60;99.90;;;;;;5061442;28;20188;-67
2022/04/03 05:18:21;;;;;;;13.50;8.03;;;-0.60;99.90;;;;;;5076630;28;20245;-65
2022/04/03 05:20:47;;;;;;;17.93;8.03;;;-0.60;99.90;;;;;;5082739;28;20216;-66
2022/04/03 05:23:13;;;;;;;20.27;8.97;;;-0.60;99.90;;;;;;5063609;28;20887;-67
2022/04/03 05:25:38;;;;;;;16.00;7.77;;;-0.70;99.90;;;;;;5080174;28;20434;-66
2022/04/03 05:28:05;;;;;;;14.10;6.50;;;-0.60;99.90;;;;;;5072335;28;20279;-65
2022/04/03 05:30:30;;;;;;;13.20;8.00;;;-0.60;99.90;;;;;;5064180;28;20188;-66
2022/04/03 05:32:56;;;;;;;14.07;7.37;;;-0.60;99.90;;;;;;5076954;28;20433;-66
2022/04/03 05:35:22;;;;;;;14.70;8.27;;;-0.60;99.90;;;;;;5076815;28;20185;-66
2022/04/03 05:37:47;;;;;;;11.27;6.30;;;-0.60;99.90;;;;;;5083382;28;20176;-65
2022/04/03 05:40:15;;;;;;;15.47;7.53;;;-0.50;99.90;;;;;;5068485;28;20189;-65
2022/04/03 05:42:41;;;;;;;14.37;7.43;;;-0.50;99.90;;;;;;5080659;28;20533;-65
2022/04/03 05:45:09;;;;;;;17.23;8.57;;;-0.60;99.90;;;;;;5076900;28;20922;-66
2022/04/03 05:47:35;;;;;;;13.20;7.07;;;-0.60;99.90;;;;;;5077453;28;20437;-65
2022/04/03 05:50:01;;;;;;;12.47;7.00;;;-0.60;99.90;;;;;;5084736;28;20415;-65
2022/04/03 05:52:27;;;;;;;13.40;6.83;;;-0.60;99.90;;;;;;5074285;28;20443;-65
2022/04/03 05:54:53;;;;;;;12.37;6.17;;;-0.50;99.90;;;;;;5074787;28;20434;-66
2022/04/03 05:57:18;;;;;;;13.40;6.70;;;-0.50;99.90;;;;;;5075655;28;20183;-66
2022/04/03 05:59:44;;;;;;;14.83;6.30;;;-0.50;99.90;;;;;;5073848;28;20196;-67
2022/04/03 06:02:12;;;;;;;10.50;5.70;;;-0.50;99.90;;;;;;5076844;28;20227;-64
2022/04/03 06:04:38;;;;;;;17.40;8.33;;;-0.40;99.90;;;;;;5075087;28;20493;-65
2022/04/03 06:07:03;;;;;;;14.70;8.00;;;-0.40;99.90;;;;;;5057518;28;20469;-64
2022/04/03 06:09:29;;;;;;;15.00;6.30;;;-0.50;99.90;;;;;;5084008;28;20187;-65
2022/04/03 06:11:55;;;;;;;14.30;8.10;;;-0.50;99.90;;;;;;5079509;28;20208;-66
2022/04/03 06:14:20;;;;;;;15.13;7.17;;;-0.50;99.90;;;;;;5074091;28;20279;-66
2022/04/03 06:16:46;;;;;;;14.70;7.37;;;-0.40;99.90;;;;;;5085882;28;20177;-66
2022/04/03 06:19:12;;;;;;;10.70;5.73;;;-0.40;99.90;;;;;;5074066;28;20217;-66
2022/04/03 06:21:38;;;;;;;13.20;7.67;;;-0.40;99.90;;;;;;5066182;28;20227;-65
2022/04/03 06:24:04;;;;;;;14.03;6.63;;;-0.30;99.90;;;;;;5076447;28;20466;-64
2022/04/03 06:26:30;;;;;;;14.93;6.60;;;-0.20;99.90;;;;;;5065218;28;20236;-65
2022/04/03 06:28:55;;;;;;;22.77;7.77;;;-0.20;99.90;;;;;;5077917;28;20438;-66
2022/04/03 06:31:21;;;;;;;11.63;6.50;;;-0.10;99.90;;;;;;5077614;28;20196;-65
2022/04/03 06:33:46;;;;;;;16.33;6.37;;;-0.10;99.90;;;;;;5077922;28;20185;-66
2022/04/03 06:36:12;;;;;;;14.27;6.80;;;0.00;99.90;;;;;;5073585;28;20208;-67
2022/04/03 06:38:37;;;;;;;12.80;6.10;;;0.00;99.90;;;;;;5074260;28;20671;-66
2022/04/03 06:41:03;;;;;;;13.53;6.73;;;0.10;99.90;;;;;;5081686;28;20249;-66
2022/04/03 06:43:30;;;;;;;14.00;7.60;;;0.20;99.90;;;;;;5081181;28;20288;-64
2022/04/03 06:45:57;;;;;;;12.23;6.13;;;0.30;99.90;;;;;;5075576;28;20265;-67
2022/04/03 06:48:23;;;;;;;18.50;6.77;;;0.40;99.90;;;;;;5062240;28;20448;-65
2022/04/03 06:50:49;;;;;;;12.80;6.77;;;0.40;99.90;;;;;;5072299;28;21249;-68
2022/04/03 06:53:15;;;;;;;9.60;5.27;;;0.60;99.90;;;;;;5080346;28;20415;-64
2022/04/03 06:55:41;;;;;;;13.03;5.83;;;0.70;99.90;;;;;;5079822;28;20721;-65
2022/04/03 06:58:07;;;;;;;9.67;4.93;;;0.80;99.90;;;;;;5077653;28;20183;-67
2022/04/03 07:00:34;;;;;;;9.20;5.40;;;0.90;99.90;;;;;;5076941;28;20180;-67
2022/04/03 07:02:59;;;;;;;8.90;4.70;;;0.90;99.90;;;;;;5077153;28;20523;-65
2022/04/03 07:05:25;;;;;;;11.23;4.60;;;1.00;99.90;;;;;;5081217;28;21166;-66
2022/04/03 07:07:52;;;;;;;7.00;4.17;;;0.90;99.90;;;;;;5086365;28;20188;-66
2022/04/03 07:10:18;;;;;;;9.93;5.30;;;0.90;99.90;;;;;;5077011;28;20695;-65
2022/04/03 07:12:44;;;;;;;9.70;4.97;;;0.90;99.90;;;;;;5068550;28;20537;-67
2022/04/03 07:15:12;;;;;;;4.00;3.00;;;0.90;99.90;;;;;;5075737;28;20225;-66
2022/04/03 07:17:38;;;;;;;7.20;3.80;;;1.00;99.90;;;;;;5082309;28;20180;-66
2022/04/03 07:20:06;;;;;;;9.40;3.87;;;1.00;99.90;;;;;;5074248;28;20462;-65
2022/04/03 07:22:31;;;;;;;8.50;3.77;;;1.00;99.90;;;;;;5069248;28;20490;-66
2022/04/03 07:24:57;;;;;;;11.00;4.50;;;1.20;99.90;;;;;;5082918;28;20451;-65
2022/04/03 07:27:23;;;;;;;7.27;3.70;;;1.20;99.90;;;;;;5068424;28;20189;-66
2022/04/03 07:29:48;;;;;;;7.37;4.40;;;1.40;99.90;;;;;;5076299;28;20426;-65
2022/04/03 07:32:14;;;;;;;7.40;3.60;;;1.50;99.90;;;;;;5079404;28;20216;-65
2022/04/03 07:34:40;;;;;;;7.30;3.67;;;1.50;99.90;;;;;;5075860;28;20237;-64
2022/04/03 07:37:05;;;;;;;8.40;3.97;;;1.50;99.90;;;;;;5079170;28;20184;-65
2022/04/03 07:39:31;;;;;;;5.47;3.90;;;1.50;99.90;;;;;;5082042;28;20274;-66
2022/04/03 07:41:57;;;;;;;8.83;4.00;;;1.60;99.90;;;;;;5081590;28;20298;-66
2022/04/03 07:44:23;;;;;;;7.37;3.40;;;1.60;99.90;;;;;;5062791;28;20185;-65
2022/04/03 07:46:48;;;;;;;5.43;3.57;;;1.90;99.90;;;;;;5080129;28;20200;-65
2022/04/03 07:49:14;;;;;;;6.60;3.57;;;2.00;99.90;;;;;;5074635;28;20177;-65
2022/04/03 07:51:40;;;;;;;5.53;2.73;;;2.60;99.90;;;;;;5075252;28;20204;-65
2022/04/03 07:54:06;;;;;;;4.33;2.83;;;2.70;98.90;;;;;;5075754;28;20261;-66
2022/04/03 07:56:32;;;;;;;6.27;3.40;;;2.70;99.20;;;;;;5072897;28;20938;-65
2022/04/03 07:58:57;;;;;;;4.20;2.50;;;2.80;98.60;;;;;;5073633;28;20246;-64
2022/04/03 08:01:23;;;;;;;5.30;3.17;;;2.90;98.20;;;;;;5074882;28;20283;-66
2022/04/03 08:03:49;;;;;;;22.27;3.87;;;3.00;97.60;;;;;;5080117;28;20236;-64
2022/04/03 08:06:14;;;;;;;8.73;3.27;;;2.70;97.40;;;;;;5078263;28;20259;-65
2022/04/03 08:08:41;;;;;;;8.27;3.60;;;2.50;98.50;;;;;;5077273;28;20264;-64
2022/04/03 08:11:08;;;;;;;6.73;2.47;;;2.50;98.40;;;;;;5079025;28;20200;-66
2022/04/03 08:13:33;;;;;;;6.20;2.90;;;2.50;98.10;;;;;;5069414;28;20411;-64
2022/04/03 08:16:01;;;;;;;5.27;3.30;;;2.40;98.10;;;;;;5083036;28;21064;-66
2022/04/03 08:18:27;;;;;;;5.67;3.00;;;2.60;98.50;;;;;;5066192;28;20581;-67
2022/04/03 08:20:53;;;;;;;12.13;3.80;;;2.70;98.00;;;;;;5069759;28;20498;-66
2022/04/03 08:23:19;;;;;;;5.50;3.20;;;2.70;98.20;;;;;;5074998;28;20508;-66
2022/04/03 08:25:45;;;;;;;5.80;2.97;;;2.90;98.30;;;;;;5078107;28;20838;-67
2022/04/03 08:28:11;;;;;;;5.17;2.63;;;2.90;98.00;;;;;;5058298;28;20414;-68
2022/04/03 08:30:37;;;;;;;6.30;3.40;;;2.60;97.80;;;;;;5078201;28;20423;-68
2022/04/03 08:33:05;;;;;;;4.20;2.50;;;2.60;98.40;;;;;;5071238;28;20229;-67
2022/04/03 08:35:31;;;;;;;6.70;2.80;;;2.50;98.00;;;;;;5076642;28;20427;-65
2022/04/03 08:37:58;;;;;;;3.83;2.33;;;2.60;98.40;;;;;;5078121;28;20515;-66
2022/04/03 08:40:25;;;;;;;7.63;3.10;;;2.50;98.50;;;;;;5080513;28;20528;-67
2022/04/03 08:42:52;;;;;;;6.10;3.23;;;2.50;98.60;;;;;;5075142;28;20286;-66
2022/04/03 08:45:18;;;;;;;5.87;3.77;;;2.50;98.30;;;;;;5068560;28;20483;-67
2022/04/03 08:47:49;;;;;;;6.90;3.93;;;2.40;99.00;;;;;;5084448;28;20498;-68
2022/04/03 08:50:16;;;;;;;11.63;3.70;;;2.00;98.80;;;;;;5078576;28;20422;-66
2022/04/03 08:52:50;;;;;;;10.83;4.00;;;2.00;99.80;;;;;;5084180;28;20455;-67
2022/04/03 08:55:17;;;;;;;6.67;2.90;;;2.00;98.90;;;;;;5078818;28;20964;-67
2022/04/03 08:57:44;;;;;;;10.20;4.93;;;1.80;99.60;;;;;;5082446;28;20997;-67
2022/04/03 09:00:11;;;;;;;12.97;3.97;;;1.90;99.50;;;;;;5073105;28;20492;-64
2022/04/03 09:02:36;;;;;;;6.33;3.97;;;2.00;99.70;;;;;;5074269;28;20461;-65
2022/04/03 09:05:05;;;;;;;6.27;3.63;;;2.10;98.80;;;;;;5078043;28;21212;-65
2022/04/03 09:07:30;;;;;;;8.48;4.40;;;2.20;98.60;;;;;;5076709;28;21245;-65
2022/04/03 09:10:07;;;;;;;9.13;4.60;;;2.10;98.90;;;;;;5070639;28;20185;-66
2022/04/03 09:12:40;;;;;;;5.10;3.30;;;2.00;99.00;;;;;;5075798;28;20204;-65
2022/04/03 09:15:12;;;;;;;6.07;2.90;;;2.00;98.70;;;;;;5059537;28;20955;-65
2022/04/03 09:17:45;;;;;;;5.80;3.20;;;2.10;99.20;;;;;;5061079;28;20426;-61
2022/04/03 09:20:16;;;;;;;6.07;2.93;;;2.00;98.70;;;;;;5077791;28;20438;-66
2022/04/03 09:22:44;;;;;;;4.40;2.70;;;1.90;98.80;;;;;;5065889;28;20471;-65
2022/04/03 09:25:13;;;;;;;5.10;2.67;;;1.90;98.40;;;;;;5074046;28;20506;-65
2022/04/03 09:27:50;;;;;;;4.97;2.60;;;2.00;97.60;;;;;;5051961;28;21060;-65
2022/04/03 09:30:18;;;;;;;7.57;3.23;;;2.10;98.40;;;;;;5073065;28;20421;-65
2022/04/03 09:32:56;;;;;;;6.70;3.80;;;2.30;97.60;;;;;;5075080;28;20530;-66
2022/04/03 09:35:31;;;;;;;7.60;3.10;;;2.60;98.00;;;;;;5071920;28;20813;-67
2022/04/03 09:38:11;;;;;;;4.67;2.77;;;3.50;97.20;;;;;;5074942;28;20429;-62
2022/04/03 09:40:43;;;;;;;6.80;3.47;;;4.00;96.70;;;;;;5074724;28;20422;-67
2022/04/03 09:43:13;;;;;;;5.00;3.10;;;4.80;96.10;;;;;;5061952;28;20467;-67
2022/04/03 09:45:53;;;;;;;7.23;3.07;;;5.30;93.30;;;;;;5074352;28;20513;-66
2022/04/03 09:48:25;;;;;;;4.73;2.53;;;5.00;93.00;;;;;;5053562;28;20435;-66
2022/04/03 09:50:54;;;;;;;7.00;3.13;;;4.50;93.60;;;;;;5074393;28;21781;-67
2022/04/03 09:53:20;;;;;;;5.53;3.07;;;4.10;93.40;;;;;;5074875;28;20435;-66
2022/04/03 09:55:46;;;;;;;10.93;2.70;;;3.70;92.80;;;;;;5074681;28;20427;-67
2022/04/03 09:58:12;;;;;;;2.97;1.67;;;3.30;93.50;;;;;;5080754;28;20489;-65
2022/04/03 10:00:38;;;;;;;5.00;2.80;;;2.90;93.80;;;;;;5095522;28;20181;-67
2022/04/03 10:03:04;;;;;;;6.00;2.90;;;2.80;94.70;;;;;;5089631;28;20447;-67
2022/04/03 10:05:33;;;;;;;5.57;3.13;;;2.80;94.50;;;;;;5089340;28;20203;-69
2022/04/03 10:08:00;;;;;;;10.57;3.20;;;2.80;94.10;;;;;;5088908;28;20172;-68
2022/04/03 10:10:30;;;;;;;5.73;3.30;;;2.70;95.90;;;;;;5097557;28;20453;-67
2022/04/03 10:12:57;;;;;;;4.77;2.40;;;2.80;95.20;;;;;;5087170;28;20426;-67
2022/04/03 10:15:24;;;;;;;6.27;3.30;;;3.00;94.50;;;;;;5088443;28;20434;-67
2022/04/03 10:17:50;;;;;;;5.67;2.40;;;3.00;93.50;;;;;;5075116;28;20438;-66
2022/04/03 10:20:16;;;;;;;5.80;2.63;;;2.80;93.40;;;;;;5074575;28;20443;-66
2022/04/03 10:22:45;;;;;;;5.00;2.80;;;2.70;95.00;;;;;;5056429;28;20221;-66
2022/04/03 10:25:15;;;;;;;4.83;2.20;;;2.70;95.00;;;;;;5076560;28;20976;-67
2022/04/03 10:27:43;;;;;;;4.27;2.27;;;2.70;95.10;;;;;;5073460;28;20430;-67
2022/04/03 10:30:10;;;;;;;4.17;2.00;;;2.60;95.20;;;;;;5077776;28;20434;-68
2022/04/03 10:32:37;;;;;;;3.60;2.23;;;2.70;95.10;;;;;;5070125;28;20442;-64
2022/04/03 10:35:11;;;;;;;7.37;2.50;;;2.80;95.00;;;;;;5072129;28;20418;-65
2022/04/03 10:37:40;;;;;;;4.40;2.20;;;2.90;94.90;;;;;;5074766;28;20422;-64
2022/04/03 10:40:21;;;;;;;4.80;2.90;;;3.00;94.40;;;;;;5076089;28;20434;-68
2022/04/03 10:42:55;;;;;;;5.73;2.37;;;3.30;94.90;;;;;;5069478;28;20455;-67
2022/04/03 10:45:25;;;;;;;2.30;1.50;;;3.60;93.10;;;;;;5075429;28;20765;-67
2022/04/03 10:47:52;;;;;;;3.40;1.70;;;3.70;92.70;;;;;;5074469;28;20438;-67
2022/04/03 10:50:18;;;;;;;10.93;2.67;;;3.30;93.20;;;;;;5079650;28;20438;-67
2022/04/03 10:52:43;;;;;;;5.00;2.57;;;3.20;93.30;;;;;;5082306;28;20497;-67
2022/04/03 10:55:29;;;;;;;4.73;2.30;;;3.10;94.00;;;;;;5076859;28;20431;-67
2022/04/03 10:58:02;;;;;;;4.53;2.70;;;3.00;93.10;;;;;;5073981;28;20181;-67
2022/04/03 11:00:27;;;;;;;3.83;1.60;;;3.00;93.20;;;;;;5075522;28;20426;-68
2022/04/03 11:03:00;;;;;;;6.73;2.50;;;2.80;93.90;;;;;;5073899;28;20458;-66
2022/04/03 11:05:28;;;;;;;4.30;2.07;;;2.60;93.80;;;;;;5058754;28;20180;-67
2022/04/03 11:08:00;;;;;;;4.40;2.50;;;2.60;93.60;;;;;;5062933;28;20576;-66
2022/04/03 11:10:58;;;;;;;4.63;2.33;;;2.40;94.30;;;;;;5069900;28;21009;-65
2022/04/03 11:13:38;;;;;;;6.13;2.17;;;2.20;94.80;;;;;;5077615;28;20536;-68
2022/04/03 11:16:09;;;;;;;5.60;1.93;;;2.10;95.20;;;;;;5062682;28;20448;-67
2022/04/03 11:18:47;;;;;;;5.47;2.60;;;2.00;94.80;;;;;;5074135;28;20419;-67
2022/04/03 11:21:23;;;;;;;4.47;2.53;;;2.00;95.20;;;;;;5072970;28;20469;-66
2022/04/03 11:24:00;;;;;;;4.50;2.37;;;2.00;96.70;;;;;;5057035;28;21044;-67
2022/04/03 11:26:26;;;;;;;10.23;3.13;;;2.10;95.70;;;;;;5072164;28;20979;-66
2022/04/03 11:28:52;;;;;;;11.00;2.97;;;2.00;96.20;;;;;;5082133;28;20426;-67
2022/04/03 11:31:18;;;;;;;5.33;2.90;;;2.00;96.90;;;;;;5079795;28;20204;-67
2022/04/03 11:33:46;;;;;;;6.57;2.57;;;2.00;97.00;;;;;;5071977;28;20450;-68
2022/04/03 11:36:17;;;;;;;4.90;2.63;;;1.90;98.00;;;;;;5081558;28;20686;-65
2022/04/03 11:38:46;;;;;;;5.60;2.70;;;1.80;98.80;;;;;;5076095;28;20424;-66
2022/04/03 11:41:17;;;;;;;4.67;2.50;;;1.90;98.80;;;;;;5081369;28;20451;-67
2022/04/03 11:43:54;;;;;;;5.80;2.47;;;1.90;97.60;;;;;;5057929;28;20469;-67
2022/04/03 11:46:22;;;;;;;6.70;2.90;;;1.90;95.90;;;;;;5064251;28;20427;-67
2022/04/03 11:48:47;;;;;;;10.17;3.30;;;1.90;95.70;;;;;;5074484;28;20432;-66
2022/04/03 11:51:16;;;;;;;5.63;3.03;;;1.90;96.00;;;;;;5080214;28;21244;-68
2022/04/03 11:53:44;;;;;;;4.20;2.50;;;1.90;96.20;;;;;;5084908;28;20343;-67
2022/04/03 11:56:15;;;;;;;4.43;2.53;;;1.90;96.70;;;;;;5064986;28;20433;-66
2022/04/03 11:58:54;;;;;;;5.87;2.80;;;1.80;97.10;;;;;;5080757;28;20664;-68
2022/04/03 12:01:34;;;;;;;14.23;2.80;;;1.80;96.10;;;;;;5060946;28;20541;-67
2022/04/03 12:04:12;;;;;;;5.97;2.30;;;1.70;96.90;;;;;;5076885;28;20531;-65
2022/04/03 12:06:40;;;;;;;10.17;2.73;;;1.80;97.20;;;;;;5076775;28;21024;-67
2022/04/03 12:09:18;;;;;;;4.33;2.77;;;1.80;96.50;;;;;;5073184;28;20434;-66
2022/04/03 12:11:48;;;;;;;7.80;3.43;;;2.00;97.00;;;;;;5077359;28;20446;-66
2022/04/03 12:14:22;;;;;;;4.53;2.13;;;2.10;96.20;;;;;;5076047;28;20556;-67
2022/04/03 12:17:03;;;;;;;3.27;2.00;;;2.00;96.50;;;;;;5077229;28;20423;-66
2022/04/03 12:19:34;;;;;;;3.80;1.70;;;2.20;96.40;;;;;;5071795;28;20418;-67
2022/04/03 12:22:04;;;;;;;6.20;2.33;;;2.40;95.90;;;;;;5076578;28;20466;-66
2022/04/03 12:24:31;;;;;;;4.97;2.80;;;2.60;96.00;;;;;;5073843;28;20518;-66
2022/04/03 12:26:58;;;;;;;5.03;2.70;;;2.80;94.90;;;;;;5072675;28;20463;-67
2022/04/03 12:29:25;;;;;;;12.20;2.33;;;2.90;94.80;;;;;;5070645;28;20438;-66
2022/04/03 12:31:58;;;;;;;8.73;2.97;;;3.00;95.20;;;;;;5080095;28;20455;-67
2022/04/03 12:34:25;;;;;;;3.70;2.17;;;3.20;94.60;;;;;;5070116;28;21176;-66
2022/04/03 12:36:53;;;;;;;4.53;2.23;;;3.20;93.90;;;;;;5076949;28;20814;-66
2022/04/03 12:39:45;;;;;;;6.00;2.17;;;2.90;93.20;;;;;;5079473;28;20437;-65
2022/04/03 12:42:33;;;;;;;5.00;2.43;;;3.00;94.50;;;;;;5030781;28;20446;-66
2022/04/03 12:45:15;;;;;;;4.00;2.13;;;2.80;94.00;;;;;;5076874;28;20425;-67
2022/04/03 12:47:55;;;;;;;3.10;1.70;;;2.90;95.40;;;;;;5078190;28;20418;-67